Time,TemperatureF,DewpointF,PressureIn,WindDirection,WindDirectionDegrees,WindSpeedMPH,WindSpeedGustMPH,Humidity,HourlyPrecipIn,Conditions,Clouds,dailyrainin,SoftwareType,DateUTC
2017-11-21 00:03:00,35.9,23.7,30.01,South,176,4.6,4.6,61,0.00,CLR,,0.00,WeatherDisplay:10.37,2017-11-21 05:03:00,
2017-11-21 00:08:00,36.0,23.8,30.00,South,176,4.6,0.0,61,0.00,CLR,,0.00,WeatherDisplay:10.37,2017-11-21 05:08:00,
2017-11-21 00:13:00,35.9,23.7,30.00,South,176,3.5,3.5,61,0.00,CLR,,0.00,WeatherDisplay:10.37,2017-11-21 05:13:00,
2017-11-21 00:18:00,35.9,23.7,30.00,South,179,5.8,5.8,61,0.00,CLR,,0.00,WeatherDisplay:10.37,2017-11-21 05:18:00,
2017-11-21 00:23:00,36.2,24.0,30.00,South,179,5.8,0.0,61,0.00,CLR,,0.00,WeatherDisplay:10.37,2017-11-21 05:23:00,
2017-11-21 00:29:00,36.6,24.0,30.00,South,181,5.8,5.8,60,0.00,CLR,,0.00,WeatherDisplay:10.37,2017-11-21 05:29:00,
2017-11-21 00:44:00,37.2,23.8,30.00,South,178,3.5,3.5,58,0.00,CLR,,0.00,WeatherDisplay:10.37,2017-11-21 05:44:00,
2017-11-21 00:49:00,37.5,24.1,29.99,South,188,4.6,4.6,58,0.00,CLR,,0.00,WeatherDisplay:10.37,2017-11-21 05:49:00,
2017-11-21 00:54:00,37.6,24.1,29.99,South,182,6.9,6.9,58,0.00,CLR,,0.00,WeatherDisplay:10.37,2017-11-21 05:54:00,
2017-11-21 00:59:00,37.8,23.9,29.98,South,191,6.9,6.9,57,0.00,CLR,,0.00,WeatherDisplay:10.37,2017-11-21 05:59:00,
2017-11-21 01:04:00,38.0,24.1,29.98,South,186,6.9,6.9,57,0.00,CLR,,0.00,WeatherDisplay:10.37,2017-11-21 06:04:00,
2017-11-21 01:14:00,38.2,23.9,29.97,South,184,8.1,8.1,56,0.00,CLR,,0.00,WeatherDisplay:10.37,2017-11-21 06:14:00,
2017-11-21 01:19:00,38.2,23.9,29.97,SSW,192,8.1,8.1,56,0.00,CLR,,0.00,WeatherDisplay:10.37,2017-11-21 06:19:00,
2017-11-21 01:25:00,38.3,24.0,29.97,South,189,6.9,6.9,56,0.00,CLR,,0.00,WeatherDisplay:10.37,2017-11-21 06:25:00,
2017-11-21 01:35:00,38.6,23.8,29.97,South,182,10.4,10.4,55,0.00,CLR,,0.00,WeatherDisplay:10.37,2017-11-21 06:35:00,
2017-11-21 01:45:00,38.8,24.0,29.97,SW,215,6.9,6.9,55,0.00,CLR,,0.00,WeatherDisplay:10.37,2017-11-21 06:45:00,
2017-11-21 01:50:00,38.6,23.8,29.97,SSW,192,8.1,8.1,55,0.00,CLR,,0.00,WeatherDisplay:10.37,2017-11-21 06:50:00,
2017-11-21 01:55:00,38.6,23.8,29.97,SSW,202,8.1,8.1,55,0.00,FEW,,0.00,WeatherDisplay:10.37,2017-11-21 06:55:00,
2017-11-21 02:21:00,39.5,22.8,29.97,South,188,11.5,11.5,51,0.00,CLR,,0.00,WeatherDisplay:10.37,2017-11-21 07:21:00,
2017-11-21 02:26:00,39.6,22.9,29.97,South,178,11.5,11.5,51,0.00,CLR,,0.00,WeatherDisplay:10.37,2017-11-21 07:26:00,
2017-11-21 02:31:00,39.8,23.1,29.97,South,184,11.5,11.5,51,0.00,CLR,,0.00,WeatherDisplay:10.37,2017-11-21 07:31:00,
2017-11-21 02:36:00,39.8,23.1,29.97,SW,222,11.5,11.5,51,0.00,CLR,,0.00,WeatherDisplay:10.37,2017-11-21 07:36:00,
2017-11-21 02:41:00,39.6,22.9,29.97,SSW,195,11.5,11.5,51,0.00,CLR,,0.00,WeatherDisplay:10.37,2017-11-21 07:41:00,
2017-11-21 02:46:00,39.6,22.9,29.97,South,186,11.5,11.5,51,0.00,CLR,,0.00,WeatherDisplay:10.37,2017-11-21 07:46:00,
2017-11-21 02:51:00,39.6,22.9,29.97,SSW,208,11.5,11.5,51,0.00,CLR,,0.00,WeatherDisplay:10.37,2017-11-21 07:51:00,
2017-11-21 03:01:00,39.5,23.3,29.97,South,185,11.5,11.5,52,0.00,CLR,,0.00,WeatherDisplay:10.37,2017-11-21 08:01:00,
2017-11-21 03:06:00,39.3,23.1,29.97,SSW,195,10.4,10.4,52,0.00,CLR,,0.00,WeatherDisplay:10.37,2017-11-21 08:06:00,
2017-11-21 03:11:00,39.2,23.0,29.97,South,191,10.4,10.4,52,0.00,CLR,,0.00,WeatherDisplay:10.37,2017-11-21 08:11:00,
2017-11-21 03:16:00,39.2,23.0,29.97,SSW,203,8.1,8.1,52,0.00,CLR,,0.00,WeatherDisplay:10.37,2017-11-21 08:16:00,
2017-11-21 03:22:00,39.2,23.0,29.97,SSW,205,8.1,8.1,52,0.00,CLR,,0.00,WeatherDisplay:10.37,2017-11-21 08:22:00,
2017-11-21 03:27:00,39.3,23.1,29.97,SSW,195,11.5,11.5,52,0.00,CLR,,0.00,WeatherDisplay:10.37,2017-11-21 08:27:00,
2017-11-21 03:32:00,39.3,23.1,29.97,South,188,11.5,11.5,52,0.00,CLR,,0.00,WeatherDisplay:10.37,2017-11-21 08:32:00,
2017-11-21 03:42:00,39.2,23.0,29.98,SW,227,10.4,10.4,52,0.00,CLR,,0.00,WeatherDisplay:10.37,2017-11-21 08:42:00,
2017-11-21 03:47:00,39.2,23.0,29.98,SSW,195,9.2,9.2,52,0.00,CLR,,0.00,WeatherDisplay:10.37,2017-11-21 08:47:00,
2017-11-21 03:52:00,39.2,23.0,29.97,SSW,209,12.7,12.7,52,0.00,CLR,,0.00,WeatherDisplay:10.37,2017-11-21 08:52:00,
2017-11-21 04:02:00,39.3,22.7,29.97,South,186,12.7,12.7,51,0.00,CLR,,0.00,WeatherDisplay:10.37,2017-11-21 09:02:00,
2017-11-21 04:24:00,39.8,23.1,29.97,South,172,11.5,11.5,51,0.00,CLR,,0.00,WeatherDisplay:10.37,2017-11-21 09:24:00,
2017-11-21 04:30:00,39.8,23.1,29.97,SSW,213,11.5,11.5,51,0.00,CLR,,0.00,WeatherDisplay:10.37,2017-11-21 09:30:00,
2017-11-21 04:35:00,39.6,22.9,29.97,SSW,198,13.8,13.8,51,0.00,CLR,,0.00,WeatherDisplay:10.37,2017-11-21 09:35:00,
2017-11-21 04:40:00,39.6,22.9,29.97,SSW,198,13.8,13.8,51,0.00,CLR,,0.00,WeatherDisplay:10.37,2017-11-21 09:40:00,
2017-11-21 04:45:00,39.6,23.4,29.97,South,185,11.5,11.5,52,0.00,CLR,,0.00,WeatherDisplay:10.37,2017-11-21 09:45:00,
2017-11-21 04:50:00,39.6,22.9,29.97,SSW,192,11.5,11.5,51,0.00,CLR,,0.00,WeatherDisplay:10.37,2017-11-21 09:50:00,
2017-11-21 05:00:00,40.1,23.4,29.97,SSW,196,11.5,11.5,51,0.00,FEW,,0.00,WeatherDisplay:10.37,2017-11-21 10:00:00,
2017-11-21 05:05:00,40.1,23.4,29.97,SSW,209,11.5,11.5,51,0.00,CLR,,0.00,WeatherDisplay:10.37,2017-11-21 10:05:00,
2017-11-21 05:10:00,40.2,23.0,29.97,SSW,193,18.4,18.4,50,0.00,FEW,,0.00,WeatherDisplay:10.37,2017-11-21 10:10:00,
2017-11-21 05:15:00,40.3,23.1,29.97,SW,236,18.4,18.4,50,0.00,FEW,,0.00,WeatherDisplay:10.37,2017-11-21 10:15:00,
2017-11-21 05:20:00,40.5,23.3,29.97,SSW,196,16.1,16.1,50,0.00,FEW,,0.00,WeatherDisplay:10.37,2017-11-21 10:20:00,
2017-11-21 05:36:00,40.1,23.4,29.97,South,188,11.5,11.5,51,0.00,FEW,,0.00,WeatherDisplay:10.37,2017-11-21 10:36:00,
2017-11-21 05:41:00,40.1,23.4,29.97,SSW,199,11.5,11.5,51,0.00,CLR,,0.00,WeatherDisplay:10.37,2017-11-21 10:41:00,
2017-11-21 05:46:00,40.2,24.0,29.97,South,171,11.5,11.5,52,0.00,CLR,,0.00,WeatherDisplay:10.37,2017-11-21 10:46:00,
2017-11-21 05:51:00,40.1,23.9,29.97,SSW,212,11.5,11.5,52,0.00,CLR,,0.00,WeatherDisplay:10.37,2017-11-21 10:51:00,
2017-11-21 06:01:00,40.3,24.1,29.97,South,184,12.7,12.7,52,0.00,CLR,,0.00,WeatherDisplay:10.37,2017-11-21 11:01:00,
2017-11-21 06:06:00,40.5,24.2,29.97,SSW,195,12.7,12.7,52,0.00,CLR,,0.00,WeatherDisplay:10.37,2017-11-21 11:06:00,
2017-11-21 06:16:00,40.6,24.3,29.97,SW,224,12.7,12.7,52,0.00,CLR,,0.00,WeatherDisplay:10.37,2017-11-21 11:16:00,
2017-11-21 06:31:00,40.6,24.3,29.98,South,191,11.5,11.5,52,0.00,CLR,,0.00,WeatherDisplay:10.37,2017-11-21 11:31:00,
2017-11-21 06:37:00,40.5,24.7,29.97,SSW,195,11.5,11.5,53,0.00,CLR,,0.00,WeatherDisplay:10.37,2017-11-21 11:37:00,
2017-11-21 06:42:00,40.5,24.7,29.97,South,182,13.8,13.8,53,0.00,CLR,,0.00,WeatherDisplay:10.37,2017-11-21 11:42:00,
2017-11-21 06:54:00,40.3,25.0,29.98,SSW,205,11.5,11.5,54,0.00,CLR,,0.00,WeatherDisplay:10.37,2017-11-21 11:54:00,
2017-11-21 06:59:00,40.2,24.9,29.97,SSW,192,11.5,11.5,54,0.00,CLR,,0.00,WeatherDisplay:10.37,2017-11-21 11:59:00,
2017-11-21 07:04:00,40.2,25.3,29.97,South,179,11.5,11.5,55,0.00,CLR,,0.00,WeatherDisplay:10.37,2017-11-21 12:04:00,
2017-11-21 07:09:00,40.3,25.4,29.97,South,188,11.5,11.5,55,0.00,CLR,,0.00,WeatherDisplay:10.37,2017-11-21 12:09:00,
2017-11-21 07:14:00,40.2,25.3,29.97,SSW,200,13.8,13.8,55,0.00,CLR,,0.00,WeatherDisplay:10.37,2017-11-21 12:14:00,
2017-11-21 07:20:00,40.2,25.3,29.97,SSW,192,13.8,13.8,55,0.00,CLR,,0.00,WeatherDisplay:10.37,2017-11-21 12:20:00,
2017-11-21 07:25:00,39.9,25.5,29.97,SSW,202,11.5,11.5,56,0.00,CLR,,0.00,WeatherDisplay:10.37,2017-11-21 12:25:00,
2017-11-21 07:30:00,40.1,25.6,29.97,South,185,16.1,16.1,56,0.00,CLR,,0.00,WeatherDisplay:10.37,2017-11-21 12:30:00,
2017-11-21 07:35:00,40.1,25.6,29.97,SSW,210,16.1,16.1,56,0.00,CLR,,0.00,WeatherDisplay:10.37,2017-11-21 12:35:00,
2017-11-21 07:40:00,40.1,26.1,29.97,SSW,200,11.5,11.5,57,0.00,CLR,,0.00,WeatherDisplay:10.37,2017-11-21 12:40:00,
2017-11-21 07:45:00,40.2,26.2,29.98,SW,226,12.7,12.7,57,0.00,BKN,,0.00,WeatherDisplay:10.37,2017-11-21 12:45:00,
2017-11-21 07:50:00,40.5,26.0,29.98,South,191,12.7,12.7,56,0.00,BKN,,0.00,WeatherDisplay:10.37,2017-11-21 12:50:00,
2017-11-21 08:05:00,41.3,26.8,29.98,South,186,11.5,11.5,56,0.00,OVC,,0.00,WeatherDisplay:10.37,2017-11-21 13:05:00,
2017-11-21 08:21:00,41.6,27.1,29.98,SW,222,13.8,13.8,56,0.00,OVC,,0.00,WeatherDisplay:10.37,2017-11-21 13:21:00,
2017-11-21 08:31:00,41.5,27.4,29.98,SSW,206,12.7,12.7,57,0.00,CLR,,0.00,WeatherDisplay:10.37,2017-11-21 13:31:00,
2017-11-21 08:41:00,41.8,27.7,29.98,South,178,12.7,12.7,57,0.00,CLR,,0.00,WeatherDisplay:10.37,2017-11-21 13:41:00,
2017-11-21 08:51:00,42.3,28.1,29.98,SSW,196,11.5,11.5,57,0.00,CLR,,0.00,WeatherDisplay:10.37,2017-11-21 13:51:00,
2017-11-21 08:56:00,42.3,27.7,29.98,South,189,10.4,10.4,56,0.00,CLR,,0.00,WeatherDisplay:10.37,2017-11-21 13:56:00,
2017-11-21 09:01:00,42.3,28.1,29.98,South,179,12.7,12.7,57,0.00,CLR,,0.00,WeatherDisplay:10.37,2017-11-21 14:01:00,
2017-11-21 09:06:00,42.3,28.1,29.98,SSW,206,12.7,12.7,57,0.00,CLR,,0.00,WeatherDisplay:10.37,2017-11-21 14:06:00,
2017-11-21 09:08:00,42.5,27.9,29.98,SSW,195,12.7,12.7,56,0.00,CLR,,0.00,WeatherDisplay:10.37,2017-11-21 14:08:00,
2017-11-21 09:13:00,42.8,28.2,29.98,SSW,193,11.5,11.5,56,0.00,CLR,,0.00,WeatherDisplay:10.37,2017-11-21 14:13:00,
2017-11-21 09:18:00,43.1,28.5,29.98,SSW,203,17.3,17.3,56,0.00,CLR,,0.00,WeatherDisplay:10.37,2017-11-21 14:18:00,
2017-11-21 09:28:00,43.9,29.2,29.98,SW,215,17.3,17.3,56,0.00,CLR,,0.00,WeatherDisplay:10.37,2017-11-21 14:28:00,
2017-11-21 09:33:00,44.6,29.4,29.98,SW,222,11.5,11.5,55,0.00,CLR,,0.00,WeatherDisplay:10.37,2017-11-21 14:33:00,
2017-11-21 09:38:00,45.4,29.3,29.97,SSW,196,11.5,11.5,53,0.00,CLR,,0.00,WeatherDisplay:10.37,2017-11-21 14:38:00,
2017-11-21 09:43:00,46.2,29.5,29.97,South,178,11.5,11.5,52,0.00,CLR,,0.00,WeatherDisplay:10.37,2017-11-21 14:43:00,
2017-11-21 09:49:00,46.7,30.0,29.97,SW,232,12.7,12.7,52,0.00,CLR,,0.00,WeatherDisplay:10.37,2017-11-21 14:49:00,
2017-11-21 09:59:00,47.3,30.5,29.97,SSW,193,17.3,17.3,52,0.00,CLR,,0.00,WeatherDisplay:10.37,2017-11-21 14:59:00,
2017-11-21 10:09:00,46.7,30.0,29.97,SSW,198,11.5,11.5,52,0.00,CLR,,0.00,WeatherDisplay:10.37,2017-11-21 15:09:00,
2017-11-21 10:24:00,47.0,30.7,29.97,SW,222,13.8,13.8,53,0.00,CLR,,0.00,WeatherDisplay:10.37,2017-11-21 15:24:00,
2017-11-21 10:29:00,47.3,30.5,29.97,SW,216,17.3,17.3,52,0.00,CLR,,0.00,WeatherDisplay:10.37,2017-11-21 15:29:00,
2017-11-21 10:34:00,48.0,30.7,29.97,SSW,203,18.4,18.4,51,0.00,CLR,,0.00,WeatherDisplay:10.37,2017-11-21 15:34:00,
2017-11-21 10:39:00,48.8,31.0,29.97,South,172,19.6,19.6,50,0.00,CLR,,0.00,WeatherDisplay:10.37,2017-11-21 15:39:00,
2017-11-21 10:49:00,49.5,30.6,29.96,SSW,198,26.5,26.5,48,0.00,CLR,,0.00,WeatherDisplay:10.37,2017-11-21 15:49:00,
2017-11-21 10:54:00,49.5,31.1,29.97,South,191,26.5,26.5,49,0.00,CLR,,0.00,WeatherDisplay:10.37,2017-11-21 15:54:00,
2017-11-21 10:59:00,49.6,31.2,29.96,SSW,208,26.5,26.5,49,0.00,CLR,,0.00,WeatherDisplay:10.37,2017-11-21 15:59:00,
2017-11-21 11:04:00,50.1,31.7,29.96,SSW,198,17.3,17.3,49,0.00,CLR,,0.00,WeatherDisplay:10.37,2017-11-21 16:04:00,
2017-11-21 11:10:00,50.1,30.6,29.96,SW,233,19.6,19.6,47,0.00,CLR,,0.00,WeatherDisplay:10.37,2017-11-21 16:10:00,
2017-11-21 11:15:00,50.2,30.7,29.96,WSW,239,20.7,20.7,47,0.00,CLR,,0.00,WeatherDisplay:10.37,2017-11-21 16:15:00,
2017-11-21 11:20:00,50.2,30.2,29.95,SSW,206,26.5,26.5,46,0.00,CLR,,0.00,WeatherDisplay:10.37,2017-11-21 16:20:00,
2017-11-21 11:35:00,50.5,30.5,29.94,SE,127,25.3,25.3,46,0.00,CLR,,0.00,WeatherDisplay:10.37,2017-11-21 16:35:00,
2017-11-21 11:40:00,50.8,30.7,29.94,WSW,253,24.2,24.2,46,0.00,CLR,,0.00,WeatherDisplay:10.37,2017-11-21 16:40:00,
2017-11-21 11:45:00,51.0,30.4,29.94,SW,219,28.8,28.8,45,0.00,OVC,,0.00,WeatherDisplay:10.37,2017-11-21 16:45:00,
2017-11-21 11:50:00,51.1,31.0,29.94,SW,222,28.8,28.8,46,0.00,OVC,,0.00,WeatherDisplay:10.37,2017-11-21 16:50:00,
2017-11-21 11:55:00,51.4,30.7,29.93,SW,222,24.2,24.2,45,0.00,OVC,,0.00,WeatherDisplay:10.37,2017-11-21 16:55:00,
2017-11-21 12:06:00,51.9,29.5,29.93,South,186,18.4,18.4,42,0.00,BKN,,0.00,WeatherDisplay:10.37,2017-11-21 17:06:00,
2017-11-21 12:11:00,52.0,30.2,29.93,SSE,147,19.6,19.6,43,0.00,BKN,,0.00,WeatherDisplay:10.37,2017-11-21 17:11:00,
2017-11-21 12:16:00,52.2,29.8,29.92,SSW,193,19.6,19.6,42,0.00,BKN,,0.00,WeatherDisplay:10.37,2017-11-21 17:16:00,
2017-11-21 12:26:00,52.6,29.5,29.92,SSW,209,19.6,19.6,41,0.00,CLR,,0.00,WeatherDisplay:10.37,2017-11-21 17:26:00,
2017-11-21 12:31:00,53.3,30.2,29.92,SSW,209,19.6,19.6,41,0.00,CLR,,0.00,WeatherDisplay:10.37,2017-11-21 17:31:00,
2017-11-21 12:54:00,56.0,29.4,29.90,South,169,19.6,19.6,36,0.00,CLR,,0.00,WeatherDisplay:10.37,2017-11-21 17:54:00,
2017-11-21 12:59:00,56.3,29.0,29.90,South,178,19.6,19.6,35,0.00,CLR,,0.00,WeatherDisplay:10.37,2017-11-21 17:59:00,
2017-11-21 13:04:00,56.3,29.0,29.90,SW,222,18.4,18.4,35,0.00,CLR,,0.00,WeatherDisplay:10.37,2017-11-21 18:04:00,
2017-11-21 13:09:00,56.6,29.2,29.90,SSW,212,27.6,27.6,35,0.00,CLR,,0.00,WeatherDisplay:10.37,2017-11-21 18:09:00,
2017-11-21 13:14:00,56.7,29.3,29.90,SW,216,27.6,27.6,35,0.00,CLR,,0.00,WeatherDisplay:10.37,2017-11-21 18:14:00,
2017-11-21 13:19:00,56.7,28.6,29.90,SW,216,25.3,25.3,34,0.00,CLR,,0.00,WeatherDisplay:10.37,2017-11-21 18:19:00,
2017-11-21 13:24:00,56.3,28.3,29.90,SW,216,28.8,28.8,34,0.00,CLR,,0.00,WeatherDisplay:10.37,2017-11-21 18:24:00,
2017-11-21 13:29:00,56.2,28.9,29.90,SW,216,28.8,28.8,35,0.00,CLR,,0.00,WeatherDisplay:10.37,2017-11-21 18:29:00,
2017-11-21 13:39:00,56.9,30.9,29.90,South,182,19.6,19.6,37,0.00,CLR,,0.00,WeatherDisplay:10.37,2017-11-21 18:39:00,
2017-11-21 13:45:00,57.6,29.4,29.90,SW,236,19.6,19.6,34,0.00,CLR,,0.00,WeatherDisplay:10.37,2017-11-21 18:45:00,
2017-11-21 13:50:00,58.0,30.5,29.90,SSW,192,16.1,16.1,35,0.00,CLR,,0.00,WeatherDisplay:10.37,2017-11-21 18:50:00,
2017-11-21 14:00:00,57.5,29.3,29.90,South,176,25.3,25.3,34,0.00,CLR,,0.00,WeatherDisplay:10.37,2017-11-21 19:00:00,
2017-11-21 14:05:00,57.3,29.1,29.90,South,191,25.3,25.3,34,0.00,CLR,,0.00,WeatherDisplay:10.37,2017-11-21 19:05:00,
2017-11-21 14:10:00,57.0,29.6,29.90,South,182,21.9,21.9,35,0.00,CLR,,0.00,WeatherDisplay:10.37,2017-11-21 19:10:00,
2017-11-21 14:15:00,57.0,31.0,29.90,SW,216,21.9,21.9,37,0.00,SCT,,0.00,WeatherDisplay:10.37,2017-11-21 19:15:00,
2017-11-21 14:20:00,57.5,30.7,29.90,SSW,198,21.9,21.9,36,0.00,SCT,,0.00,WeatherDisplay:10.37,2017-11-21 19:20:00,
2017-11-21 14:25:00,58.0,31.2,29.90,South,172,19.6,19.6,36,0.00,SCT,,0.00,WeatherDisplay:10.37,2017-11-21 19:25:00,
2017-11-21 14:35:00,57.5,31.4,29.90,SSE,158,21.9,21.9,37,0.00,CLR,,0.00,WeatherDisplay:10.37,2017-11-21 19:35:00,
2017-11-21 14:41:00,57.6,31.5,29.89,South,179,19.6,19.6,37,0.00,SCT,,0.00,WeatherDisplay:10.37,2017-11-21 19:41:00,
2017-11-21 14:46:00,58.0,31.2,29.90,SSW,209,19.6,19.6,36,0.00,SCT,,0.00,WeatherDisplay:10.37,2017-11-21 19:46:00,
2017-11-21 15:01:00,56.9,30.2,29.90,SSW,208,17.3,17.3,36,0.00,SCT,,0.00,WeatherDisplay:10.37,2017-11-21 20:01:00,
2017-11-21 15:11:00,56.6,30.6,29.90,SW,219,19.6,19.6,37,0.00,CLR,,0.00,WeatherDisplay:10.37,2017-11-21 20:11:00,
2017-11-21 15:16:00,56.7,30.7,29.90,SW,229,19.6,19.6,37,0.00,CLR,,0.00,WeatherDisplay:10.37,2017-11-21 20:16:00,
2017-11-21 15:21:00,56.5,30.5,29.90,SSW,212,12.7,12.7,37,0.00,CLR,,0.00,WeatherDisplay:10.37,2017-11-21 20:21:00,
2017-11-21 15:31:00,56.3,30.3,29.90,SW,215,17.3,17.3,37,0.00,CLR,,0.00,WeatherDisplay:10.37,2017-11-21 20:31:00,
2017-11-21 15:42:00,56.5,30.5,29.90,SW,230,16.1,16.1,37,0.00,CLR,,0.00,WeatherDisplay:10.37,2017-11-21 20:42:00,
2017-11-21 15:47:00,56.3,31.0,29.90,WSW,237,16.1,16.1,38,0.00,CLR,,0.00,WeatherDisplay:10.37,2017-11-21 20:47:00,
2017-11-21 15:52:00,56.2,30.2,29.90,SSW,208,13.8,13.8,37,0.00,CLR,,0.00,WeatherDisplay:10.37,2017-11-21 20:52:00,
2017-11-21 15:57:00,55.9,30.6,29.90,SSW,208,13.8,13.8,38,0.00,CLR,,0.00,WeatherDisplay:10.37,2017-11-21 20:57:00,
2017-11-21 16:02:00,55.7,30.5,29.90,SSW,202,13.8,13.8,38,0.00,CLR,,0.00,WeatherDisplay:10.37,2017-11-21 21:02:00,
2017-11-21 16:07:00,55.4,30.8,29.91,South,178,12.7,12.7,39,0.00,CLR,,0.00,WeatherDisplay:10.37,2017-11-21 21:07:00,
2017-11-21 16:12:00,55.1,30.6,29.91,SSW,199,12.7,12.7,39,0.00,CLR,,0.00,WeatherDisplay:10.37,2017-11-21 21:12:00,
2017-11-21 16:17:00,54.8,30.9,29.91,SSW,195,12.7,12.7,40,0.00,CLR,,0.00,WeatherDisplay:10.37,2017-11-21 21:17:00,
2017-11-21 16:22:00,54.5,30.6,29.91,SSW,209,8.1,8.1,40,0.00,CLR,,0.00,WeatherDisplay:10.37,2017-11-21 21:22:00,
2017-11-21 16:32:00,54.4,31.2,29.91,South,175,16.1,16.1,41,0.00,CLR,,0.00,WeatherDisplay:10.37,2017-11-21 21:32:00,
2017-11-21 16:37:00,54.2,31.6,29.91,SW,220,16.1,16.1,42,0.00,CLR,,0.00,WeatherDisplay:10.37,2017-11-21 21:37:00,
2017-11-21 16:42:00,54.1,31.5,29.92,SSW,206,12.7,12.7,42,0.00,CLR,,0.00,WeatherDisplay:10.37,2017-11-21 21:42:00,
2017-11-21 16:47:00,53.9,31.3,29.92,SSW,198,12.7,12.7,42,0.00,CLR,,0.00,WeatherDisplay:10.37,2017-11-21 21:47:00,
2017-11-21 16:52:00,53.8,31.2,29.92,SW,220,17.3,17.3,42,0.00,CLR,,0.00,WeatherDisplay:10.37,2017-11-21 21:52:00,
2017-11-21 16:58:00,53.6,31.6,29.92,SSW,213,17.3,17.3,43,0.00,CLR,,0.00,WeatherDisplay:10.37,2017-11-21 21:58:00,
2017-11-21 17:03:00,53.5,31.5,29.92,SSW,196,11.5,11.5,43,0.00,CLR,,0.00,WeatherDisplay:10.37,2017-11-21 22:03:00,
2017-11-21 17:13:00,53.1,31.7,29.92,SW,222,11.5,11.5,44,0.00,CLR,,0.00,WeatherDisplay:10.37,2017-11-21 22:13:00,
2017-11-21 17:23:00,52.8,32.0,29.92,SSW,210,11.5,11.5,45,0.00,CLR,,0.00,WeatherDisplay:10.37,2017-11-21 22:23:00,
2017-11-21 17:28:00,52.6,31.8,29.92,SW,220,11.5,11.5,45,0.00,CLR,,0.00,WeatherDisplay:10.37,2017-11-21 22:28:00,
2017-11-21 17:38:00,52.2,32.0,29.92,SW,227,5.8,5.8,46,0.00,CLR,,0.00,WeatherDisplay:10.37,2017-11-21 22:38:00,
2017-11-21 17:43:00,52.0,32.4,29.92,SW,230,6.9,0.0,47,0.00,CLR,,0.00,WeatherDisplay:10.37,2017-11-21 22:43:00,
2017-11-21 17:48:00,51.9,32.3,29.92,SW,222,6.9,0.0,47,0.00,CLR,,0.00,WeatherDisplay:10.37,2017-11-21 22:48:00,
2017-11-21 18:04:00,51.4,32.9,29.92,West,267,8.1,0.0,49,0.00,CLR,,0.00,WeatherDisplay:10.37,2017-11-21 23:04:00,
2017-11-21 18:09:00,51.1,32.6,29.92,SW,233,3.5,3.5,49,0.00,CLR,,0.00,WeatherDisplay:10.37,2017-11-21 23:09:00,
2017-11-21 18:19:00,51.1,33.1,29.92,SW,234,3.5,0.0,50,0.00,CLR,,0.00,WeatherDisplay:10.37,2017-11-21 23:19:00,
2017-11-21 18:24:00,51.0,33.5,29.92,WSW,248,2.3,0.0,51,0.00,CLR,,0.00,WeatherDisplay:10.37,2017-11-21 23:24:00,
2017-11-21 18:29:00,50.8,32.8,29.92,SW,219,5.8,5.8,50,0.00,CLR,,0.00,WeatherDisplay:10.37,2017-11-21 23:29:00,
2017-11-21 18:34:00,50.8,32.8,29.92,SSW,208,5.8,5.8,50,0.00,CLR,,0.00,WeatherDisplay:10.37,2017-11-21 23:34:00,
2017-11-21 19:00:00,51.1,31.6,29.93,SW,219,12.7,12.7,47,0.00,CLR,,0.00,WeatherDisplay:10.37,2017-11-22 00:00:00,
2017-11-21 19:10:00,51.1,31.6,29.93,SW,233,8.1,0.0,47,0.00,CLR,,0.00,WeatherDisplay:10.37,2017-11-22 00:10:00,
2017-11-21 19:30:00,50.4,30.9,29.93,WSW,244,5.8,5.8,47,0.00,CLR,,0.00,WeatherDisplay:10.37,2017-11-22 00:30:00,
2017-11-21 19:35:00,50.4,30.9,29.93,WSW,246,5.8,5.8,47,0.00,CLR,,0.00,WeatherDisplay:10.37,2017-11-22 00:35:00,
2017-11-21 19:40:00,50.2,30.7,29.94,WSW,243,5.8,5.8,47,0.00,OVC,,0.00,WeatherDisplay:10.37,2017-11-22 00:40:00,
2017-11-21 19:45:00,50.2,30.7,29.94,SW,229,5.8,0.0,47,0.00,CLR,,0.00,WeatherDisplay:10.37,2017-11-22 00:45:00,
2017-11-21 19:50:00,50.1,30.6,29.94,SW,219,5.8,5.8,47,0.00,CLR,,0.00,WeatherDisplay:10.37,2017-11-22 00:50:00,
2017-11-21 19:55:00,49.8,30.9,29.93,SSW,205,5.8,0.0,48,0.00,OVC,,0.00,WeatherDisplay:10.37,2017-11-22 00:55:00,
2017-11-21 20:00:00,49.6,30.7,29.94,SW,233,5.8,0.0,48,0.00,OVC,,0.00,WeatherDisplay:10.37,2017-11-22 01:00:00,
2017-11-21 20:06:00,49.4,31.0,29.94,SW,223,2.3,2.3,49,0.00,OVC,,0.00,WeatherDisplay:10.37,2017-11-22 01:06:00,
2017-11-21 20:16:00,49.2,30.8,29.94,SW,216,4.6,0.0,49,0.00,CLR,,0.00,WeatherDisplay:10.37,2017-11-22 01:16:00,
2017-11-21 20:21:00,49.1,30.7,29.94,SSW,212,2.3,2.3,49,0.00,CLR,,0.00,WeatherDisplay:10.37,2017-11-22 01:21:00,
2017-11-21 20:41:00,48.9,30.6,29.95,SW,234,3.5,3.5,49,0.00,CLR,,0.00,WeatherDisplay:10.37,2017-11-22 01:41:00,
2017-11-21 20:51:00,48.9,30.6,29.95,WSW,239,6.9,0.0,49,0.00,CLR,,0.00,WeatherDisplay:10.37,2017-11-22 01:51:00,
2017-11-21 20:56:00,48.8,30.5,29.95,SSW,209,5.8,5.8,49,0.00,CLR,,0.00,WeatherDisplay:10.37,2017-11-22 01:56:00,
2017-11-21 21:06:00,48.8,31.0,29.94,WSW,240,5.8,5.8,50,0.00,CLR,,0.00,WeatherDisplay:10.37,2017-11-22 02:06:00,
2017-11-21 21:07:00,48.8,31.0,29.94,WSW,240,4.6,0.0,50,0.00,CLR,,0.00,WeatherDisplay:10.37,2017-11-22 02:07:00,
2017-11-21 21:12:00,48.8,31.0,29.95,West,270,4.6,4.6,50,0.00,CLR,,0.00,WeatherDisplay:10.37,2017-11-22 02:12:00,
2017-11-21 21:22:00,48.6,30.8,29.95,WSW,258,11.5,11.5,50,0.00,CLR,,0.00,WeatherDisplay:10.37,2017-11-22 02:22:00,
2017-11-21 21:27:00,48.6,31.3,29.95,West,272,11.5,11.5,51,0.00,CLR,,0.00,WeatherDisplay:10.37,2017-11-22 02:27:00,
2017-11-21 21:32:00,48.5,31.7,29.96,West,270,6.9,6.9,52,0.00,CLR,,0.00,WeatherDisplay:10.37,2017-11-22 02:32:00,
2017-11-21 21:42:00,47.9,31.6,29.96,West,272,4.6,0.0,53,0.00,CLR,,0.00,WeatherDisplay:10.37,2017-11-22 02:42:00,
2017-11-21 21:47:00,47.7,31.9,29.97,West,277,10.4,10.4,54,0.00,CLR,,0.00,WeatherDisplay:10.37,2017-11-22 02:47:00,
2017-11-21 21:52:00,47.4,32.0,29.97,West,270,10.4,10.4,55,0.00,CLR,,0.00,WeatherDisplay:10.37,2017-11-22 02:52:00,
2017-11-21 21:57:00,47.3,32.8,29.97,West,278,5.8,5.8,57,0.00,CLR,,0.00,WeatherDisplay:10.37,2017-11-22 02:57:00,
2017-11-21 22:02:00,47.3,33.7,29.97,WNW,285,12.7,12.7,59,0.00,FEW,,0.00,WeatherDisplay:10.37,2017-11-22 03:02:00,
2017-11-21 22:07:00,47.3,34.1,29.97,West,277,13.8,13.8,60,0.00,FEW,,0.00,WeatherDisplay:10.37,2017-11-22 03:07:00,
2017-11-21 22:14:00,47.1,34.3,29.97,NNW,333,13.8,13.8,61,0.00,FEW,,0.00,WeatherDisplay:10.37,2017-11-22 03:14:00,
2017-11-21 22:24:00,46.7,34.8,29.97,WSW,251,6.9,6.9,63,0.00,FEW,,0.00,WeatherDisplay:10.37,2017-11-22 03:24:00,
2017-11-21 22:34:00,46.4,35.3,29.97,West,263,6.9,6.9,65,0.00,FEW,,0.00,WeatherDisplay:10.37,2017-11-22 03:34:00,
2017-11-21 22:37:00,46.2,35.1,29.97,WNW,285,6.9,6.9,65,0.00,FEW,,0.00,WeatherDisplay:10.37,2017-11-22 03:37:00,
2017-11-21 22:42:00,46.2,35.5,29.98,WSW,253,6.9,6.9,66,0.00,FEW,,0.00,WeatherDisplay:10.37,2017-11-22 03:42:00,
2017-11-21 22:47:00,46.1,35.4,29.98,West,280,6.9,6.9,66,0.00,FEW,,0.00,WeatherDisplay:10.37,2017-11-22 03:47:00,
2017-11-21 22:52:00,46.1,35.7,29.98,NW,315,6.9,6.9,67,0.00,FEW,,0.00,WeatherDisplay:10.37,2017-11-22 03:52:00,
2017-11-21 22:57:00,46.0,35.7,29.98,NW,315,6.9,6.9,67,0.00,FEW,,0.00,WeatherDisplay:10.37,2017-11-22 03:57:00,
2017-11-21 23:07:00,45.8,35.5,29.98,WNW,295,10.4,10.4,67,0.00,OVC,,0.00,WeatherDisplay:10.37,2017-11-22 04:07:00,
2017-11-21 23:12:00,45.7,35.7,29.98,West,278,10.4,10.4,68,0.00,OVC,,0.00,WeatherDisplay:10.37,2017-11-22 04:12:00,
2017-11-21 23:17:00,45.4,35.5,29.98,West,277,10.4,10.4,68,0.00,OVC,,0.00,WeatherDisplay:10.37,2017-11-22 04:17:00,
2017-11-21 23:27:00,45.1,35.5,29.98,West,268,9.2,9.2,69,0.00,OVC,,0.00,WeatherDisplay:10.37,2017-11-22 04:27:00,
2017-11-21 23:30:00,44.9,35.3,29.98,West,274,9.2,9.2,69,0.00,OVC,,0.00,WeatherDisplay:10.37,2017-11-22 04:30:00,